Time;durP1;ratioP1;P1;durP2;ratioP2;P2;SDS_P1;SDS_P2;PMS_P1;PMS_P2;Temp;Humidity;BMP_temperature;BMP_pressure;BME280_temperature;BME280_humidity;BME280_pressure;Samples;Min_cycle;Max_cycle;Signal;HPM_P1;HPM_P2
2021/04/17 00:01:33;;;;;;;7.83;6.77;;;7.70;93.00;;;;;;5153121;27;20572;-61
2021/04/17 00:04:00;;;;;;;8.80;7.80;;;7.70;93.20;;;;;;5152752;27;20210;-62
2021/04/17 00:06:27;;;;;;;9.07;7.30;;;7.70;93.10;;;;;;5152843;27;20205;-61
2021/04/17 00:08:53;;;;;;;8.57;6.87;;;7.70;93.20;;;;;;5152463;27;20226;-61
2021/04/17 00:11:20;;;;;;;8.23;7.20;;;7.70;93.20;;;;;;5152787;27;20226;-62
2021/04/17 00:13:47;;;;;;;8.83;6.80;;;7.80;93.20;;;;;;5152890;27;20206;-62
2021/04/17 00:16:13;;;;;;;9.07;7.20;;;7.80;93.10;;;;;;5152995;27;20700;-64
2021/04/17 00:18:40;;;;;;;7.90;7.00;;;7.90;93.10;;;;;;5154206;27;20222;-64
2021/04/17 00:21:06;;;;;;;7.70;6.53;;;7.80;93.40;;;;;;5153137;27;20198;-65
2021/04/17 00:23:32;;;;;;;7.43;6.67;;;7.70;93.50;;;;;;5152811;27;20202;-65
2021/04/17 00:26:00;;;;;;;7.47;6.53;;;7.70;93.70;;;;;;5152968;27;20658;-64
2021/04/17 00:28:27;;;;;;;7.73;6.67;;;7.70;93.70;;;;;;5152813;27;20225;-64
2021/04/17 00:30:53;;;;;;;8.60;6.80;;;7.60;93.70;;;;;;5153355;27;20218;-63
2021/04/17 00:33:19;;;;;;;10.60;6.77;;;7.60;93.70;;;;;;5152980;27;20665;-64
2021/04/17 00:35:46;;;;;;;7.87;6.87;;;7.60;93.80;;;;;;5153041;27;20206;-64
2021/04/17 00:38:12;;;;;;;7.40;6.70;;;7.60;93.90;;;;;;5152284;27;20226;-64
2021/04/17 00:40:38;;;;;;;8.20;7.13;;;7.60;94.00;;;;;;5152959;27;20202;-65
2021/04/17 00:43:05;;;;;;;8.77;7.17;;;7.60;94.00;;;;;;5152965;27;20287;-64
2021/04/17 00:45:32;;;;;;;8.33;7.10;;;7.50;94.10;;;;;;5152448;27;20198;-63
2021/04/17 00:47:58;;;;;;;8.07;7.10;;;7.50;94.30;;;;;;5152580;27;20226;-63
2021/04/17 00:50:25;;;;;;;7.90;7.10;;;7.40;94.40;;;;;;5152552;27;20251;-63
2021/04/17 00:52:52;;;;;;;8.37;7.17;;;7.40;94.40;;;;;;5152834;27;20206;-64
2021/04/17 00:55:18;;;;;;;8.03;7.23;;;7.40;94.60;;;;;;5152913;27;20214;-63
2021/04/17 00:57:44;;;;;;;10.87;8.23;;;7.40;94.50;;;;;;5154467;27;20226;-63
2021/04/17 01:00:13;;;;;;;9.60;8.00;;;7.60;94.40;;;;;;5156877;27;20258;-64
2021/04/17 01:02:46;;;;;;;7.97;6.90;;;7.70;94.30;;;;;;5156782;27;20194;-63
2021/04/17 01:05:15;;;;;;;8.00;7.03;;;7.70;94.10;;;;;;5156389;27;20202;-62
2021/04/17 01:07:46;;;;;;;8.27;7.27;;;7.80;94.20;;;;;;5156554;27;20226;-63
2021/04/17 01:10:26;;;;;;;8.77;7.53;;;7.70;94.10;;;;;;5156640;27;20486;-64
2021/04/17 01:12:55;;;;;;;9.50;7.07;;;7.80;94.10;;;;;;5156604;27;20199;-64
2021/04/17 01:15:23;;;;;;;8.47;7.10;;;7.80;94.00;;;;;;5156326;27;20197;-63
2021/04/17 01:17:53;;;;;;;8.83;7.63;;;7.90;93.90;;;;;;5156161;27;20354;-63
2021/04/17 01:20:24;;;;;;;289.47;231.70;;;7.90;93.90;;;;;;5156767;27;20230;-63
2021/04/17 01:23:02;;;;;;;14.77;11.77;;;7.90;93.80;;;;;;5156763;27;20206;-63
2021/04/17 01:25:29;;;;;;;8.23;7.43;;;7.80;93.90;;;;;;5156182;27;20223;-64
2021/04/17 01:27:57;;;;;;;9.37;7.77;;;7.80;93.90;;;;;;5156230;27;20245;-62
2021/04/17 01:30:24;;;;;;;7.57;6.60;;;7.60;93.90;;;;;;5156179;27;20258;-64
2021/04/17 01:32:51;;;;;;;7.80;6.80;;;7.60;94.10;;;;;;5156452;27;20198;-64
2021/04/17 01:35:20;;;;;;;8.20;7.40;;;7.40;94.50;;;;;;5156175;27;20206;-63
2021/04/17 01:38:18;;;;;;;8.40;6.97;;;7.30;94.90;;;;;;5156040;27;20225;-63
2021/04/17 01:40:48;;;;;;;7.77;6.97;;;7.10;95.20;;;;;;5051599;28;20209;-62
2021/04/17 01:43:17;;;;;;;8.57;7.03;;;7.10;95.40;;;;;;5134947;27;20213;-63
2021/04/17 01:45:45;;;;;;;8.07;6.67;;;7.10;95.40;;;;;;5156338;27;20209;-63
2021/04/17 01:48:14;;;;;;;10.43;7.47;;;7.10;95.50;;;;;;5156427;27;20230;-63
2021/04/17 01:50:41;;;;;;;7.33;6.63;;;7.10;95.60;;;;;;5155876;27;20255;-62
2021/04/17 01:53:11;;;;;;;7.67;6.87;;;7.00;95.60;;;;;;5155593;27;20674;-63
2021/04/17 01:55:39;;;;;;;8.97;7.70;;;7.00;95.70;;;;;;5155290;27;20689;-63
2021/04/17 01:58:05;;;;;;;7.93;7.13;;;7.10;95.80;;;;;;5155374;27;20234;-64
2021/04/17 02:00:33;;;;;;;8.70;7.10;;;7.10;95.90;;;;;;5156059;27;20206;-62
2021/04/17 02:02:59;;;;;;;9.20;8.10;;;7.10;96.00;;;;;;5155766;27;20266;-63
2021/04/17 02:05:25;;;;;;;8.70;7.80;;;7.10;96.10;;;;;;5155647;27;20579;-63
2021/04/17 02:07:55;;;;;;;8.77;7.90;;;7.10;96.10;;;;;;5157293;27;20223;-63
2021/04/17 02:10:21;;;;;;;9.50;7.40;;;7.20;95.90;;;;;;5156049;27;20217;-63
2021/04/17 02:12:48;;;;;;;8.60;7.33;;;7.20;95.80;;;;;;5155623;27;20594;-63
2021/04/17 02:15:15;;;;;;;8.23;7.37;;;7.20;95.90;;;;;;5155076;27;20662;-63
2021/04/17 02:17:50;;;;;;;9.27;7.60;;;7.10;96.00;;;;;;5155052;27;20237;-63
2021/04/17 02:20:22;;;;;;;8.77;7.87;;;7.20;96.00;;;;;;5155495;27;20236;-62
2021/04/17 02:22:49;;;;;;;10.73;7.50;;;7.10;96.10;;;;;;5155623;27;20217;-63
2021/04/17 02:25:16;;;;;;;8.67;7.77;;;7.10;96.20;;;;;;5156335;27;20198;-64
2021/04/17 02:27:43;;;;;;;8.47;7.60;;;7.10;96.20;;;;;;5156551;27;20226;-64
2021/04/17 02:30:10;;;;;;;10.07;7.60;;;7.20;96.20;;;;;;5155951;27;20202;-63
2021/04/17 02:32:36;;;;;;;8.13;7.30;;;7.30;96.20;;;;;;5154417;27;20233;-63
2021/04/17 02:35:04;;;;;;;11.90;7.70;;;7.30;96.10;;;;;;5154458;27;20198;-63
2021/04/17 02:37:30;;;;;;;8.97;7.23;;;7.30;95.90;;;;;;5154303;27;20571;-64
2021/04/17 02:39:56;;;;;;;8.00;7.20;;;7.30;95.90;;;;;;5154475;27;20271;-64
2021/04/17 02:42:23;;;;;;;8.67;7.27;;;7.20;95.90;;;;;;5154676;27;20581;-63
2021/04/17 02:44:49;;;;;;;9.47;7.10;;;7.20;96.00;;;;;;5154672;27;20203;-64
2021/04/17 02:47:17;;;;;;;9.37;6.73;;;7.20;96.10;;;;;;5154430;27;20669;-63
2021/04/17 02:49:43;;;;;;;8.60;7.20;;;7.20;96.10;;;;;;5154938;27;20241;-63
2021/04/17 02:52:10;;;;;;;8.43;7.57;;;7.20;96.00;;;;;;5154592;27;20274;-63
2021/04/17 02:54:37;;;;;;;9.40;7.17;;;7.20;96.10;;;;;;5154190;27;20202;-63
2021/04/17 02:57:03;;;;;;;7.60;6.90;;;7.20;96.00;;;;;;5154003;27;20206;-63
2021/04/17 02:59:30;;;;;;;7.93;7.13;;;7.20;96.10;;;;;;5154481;27;20229;-63
2021/04/17 03:01:56;;;;;;;8.13;7.33;;;7.20;96.10;;;;;;5153982;27;20566;-64
2021/04/17 03:04:22;;;;;;;8.00;7.20;;;7.30;96.10;;;;;;5154148;27;20225;-63
2021/04/17 03:06:48;;;;;;;7.73;6.93;;;7.30;95.90;;;;;;5154164;27;20283;-64
2021/04/17 03:09:15;;;;;;;8.90;8.00;;;7.30;96.00;;;;;;5154381;27;20226;-61
2021/04/17 03:11:42;;;;;;;8.33;7.27;;;7.30;96.20;;;;;;5153991;27;20283;-62
2021/04/17 03:14:08;;;;;;;7.80;7.00;;;7.10;96.40;;;;;;5153936;27;20281;-61
2021/04/17 03:16:35;;;;;;;8.87;7.13;;;7.00;96.40;;;;;;5153279;27;20202;-61
2021/04/17 03:19:01;;;;;;;10.10;7.20;;;7.00;96.60;;;;;;5153618;27;20245;-62
2021/04/17 03:21:27;;;;;;;8.73;7.23;;;7.00;96.70;;;;;;5153113;27;20204;-62
2021/04/17 03:23:53;;;;;;;8.87;7.53;;;7.00;96.80;;;;;;5153761;27;20206;-62
2021/04/17 03:26:20;;;;;;;8.57;7.30;;;7.00;96.90;;;;;;5154086;27;20198;-62
2021/04/17 03:28:47;;;;;;;8.40;7.50;;;7.00;97.00;;;;;;5153580;27;20225;-62
2021/04/17 03:31:13;;;;;;;8.77;7.43;;;7.00;97.00;;;;;;5153630;27;20591;-61
2021/04/17 03:33:40;;;;;;;8.20;7.40;;;6.90;97.10;;;;;;5153486;27;20697;-61
2021/04/17 03:36:07;;;;;;;10.40;7.47;;;6.90;97.20;;;;;;5153662;27;20203;-63
2021/04/17 03:38:33;;;;;;;8.23;7.37;;;6.80;97.20;;;;;;5153777;27;20226;-60
2021/04/17 03:40:59;;;;;;;9.03;7.70;;;6.80;97.20;;;;;;5154606;27;20195;-60
2021/04/17 03:43:26;;;;;;;8.93;7.77;;;6.80;97.20;;;;;;5153862;27;20209;-60
2021/04/17 03:45:53;;;;;;;9.03;7.97;;;6.70;97.40;;;;;;5154656;27;20206;-62
2021/04/17 03:48:19;;;;;;;9.53;7.80;;;6.60;97.60;;;;;;5154553;27;20278;-61
2021/04/17 03:50:45;;;;;;;8.50;7.70;;;6.70;97.80;;;;;;5154921;27;20206;-61
2021/04/17 03:53:11;;;;;;;10.83;8.17;;;6.70;97.70;;;;;;5156104;27;20227;-61
2021/04/17 03:55:38;;;;;;;8.10;6.97;;;6.70;97.70;;;;;;5155837;27;20206;-62
2021/04/17 03:58:04;;;;;;;9.57;8.30;;;6.70;97.80;;;;;;5155176;27;20718;-61
2021/04/17 04:00:31;;;;;;;10.17;7.97;;;6.70;97.90;;;;;;5155355;27;20227;-63
2021/04/17 04:02:57;;;;;;;10.47;8.50;;;6.70;98.00;;;;;;5155197;27;20198;-63
2021/04/17 04:05:23;;;;;;;11.63;8.00;;;6.70;98.00;;;;;;5154097;27;20206;-63
2021/04/17 04:07:50;;;;;;;10.73;8.57;;;6.70;98.10;;;;;;5153136;27;20712;-62
2021/04/17 04:10:16;;;;;;;10.17;9.10;;;6.70;98.00;;;;;;5153613;27;20217;-62
2021/04/17 04:12:44;;;;;;;17.20;9.27;;;6.80;98.00;;;;;;5153626;27;20225;-61
2021/04/17 04:15:11;;;;;;;9.07;8.17;;;6.80;97.90;;;;;;5154037;27;20262;-63
2021/04/17 04:17:39;;;;;;;12.73;8.93;;;6.90;97.80;;;;;;5153687;27;20222;-61
2021/04/17 04:20:07;;;;;;;9.03;8.10;;;6.90;97.50;;;;;;5153448;27;20217;-60
2021/04/17 04:22:33;;;;;;;10.57;9.20;;;6.90;97.40;;;;;;5153797;27;20204;-62
2021/04/17 04:25:00;;;;;;;10.33;8.30;;;6.90;97.20;;;;;;5152962;27;20213;-62
2021/04/17 04:27:26;;;;;;;8.73;7.83;;;6.90;97.20;;;;;;5152694;27;20483;-61
2021/04/17 04:29:52;;;;;;;11.37;8.30;;;6.90;97.20;;;;;;5152735;27;20617;-62
2021/04/17 04:32:19;;;;;;;10.50;9.33;;;6.90;97.20;;;;;;5153874;27;20401;-62
2021/04/17 04:34:46;;;;;;;25.17;16.73;;;6.90;97.20;;;;;;5157410;27;20262;-63
2021/04/17 04:37:12;;;;;;;10.73;8.97;;;6.90;97.20;;;;;;5157572;27;20229;-61
2021/04/17 04:39:38;;;;;;;10.33;9.23;;;6.90;97.20;;;;;;5157454;27;20217;-62
2021/04/17 04:42:04;;;;;;;12.33;9.50;;;6.90;97.10;;;;;;5157647;27;20624;-62
2021/04/17 04:44:31;;;;;;;10.60;9.40;;;6.90;97.20;;;;;;5157583;27;20198;-62
2021/04/17 04:46:57;;;;;;;10.17;9.10;;;6.90;97.20;;;;;;5157802;27;20224;-62
2021/04/17 04:49:23;;;;;;;11.33;8.70;;;6.80;97.10;;;;;;5156776;27;20311;-62
2021/04/17 04:51:50;;;;;;;11.70;9.73;;;6.80;97.20;;;;;;5157183;27;20226;-64
2021/04/17 04:54:17;;;;;;;14.07;11.87;;;6.80;97.20;;;;;;5156841;27;20209;-62
2021/04/17 04:56:43;;;;;;;12.07;10.47;;;6.90;97.20;;;;;;5157455;27;20202;-62
2021/04/17 04:59:09;;;;;;;12.47;10.00;;;6.90;97.20;;;;;;5156974;27;20709;-62
2021/04/17 05:01:35;;;;;;;14.00;11.30;;;6.90;97.20;;;;;;5157440;27;20213;-62
2021/04/17 05:04:02;;;;;;;17.37;12.20;;;7.00;97.20;;;;;;5156626;27;20209;-64
2021/04/17 05:06:28;;;;;;;12.60;10.53;;;7.00;97.20;;;;;;5156921;27;20202;-62
2021/04/17 05:08:55;;;;;;;20.07;13.93;;;7.10;97.30;;;;;;5157113;27;20226;-63
2021/04/17 05:11:21;;;;;;;11.53;9.50;;;7.10;97.20;;;;;;5156938;27;20688;-62
2021/04/17 05:13:47;;;;;;;13.87;10.23;;;7.00;97.30;;;;;;5156563;27;20209;-61
2021/04/17 05:16:13;;;;;;;11.30;9.30;;;7.10;97.30;;;;;;5156484;27;20209;-61
2021/04/17 05:18:40;;;;;;;12.07;10.63;;;7.20;97.30;;;;;;5155945;27;20389;-63
2021/04/17 05:21:06;;;;;;;11.90;10.13;;;7.20;97.10;;;;;;5156401;27;20563;-63
2021/04/17 05:23:32;;;;;;;13.57;9.90;;;7.20;97.00;;;;;;5155932;27;20266;-63
2021/04/17 05:25:59;;;;;;;12.57;10.50;;;7.30;97.00;;;;;;5157042;27;20202;-62
2021/04/17 05:28:26;;;;;;;11.30;9.73;;;7.40;96.90;;;;;;5156343;27;20226;-62
2021/04/17 05:30:52;;;;;;;12.93;10.17;;;7.40;96.80;;;;;;5156600;27;20229;-64
2021/04/17 05:33:18;;;;;;;27.10;19.73;;;7.50;96.70;;;;;;5156320;27;20255;-63
2021/04/17 05:35:44;;;;;;;13.17;10.87;;;7.60;96.60;;;;;;5156515;27;20583;-62
2021/04/17 05:38:10;;;;;;;13.93;10.50;;;7.60;96.50;;;;;;5156732;27;20230;-63
2021/04/17 05:40:37;;;;;;;12.37;10.57;;;7.60;96.50;;;;;;5158746;27;20223;-63
2021/04/17 05:43:04;;;;;;;15.87;12.43;;;7.70;96.50;;;;;;5156465;27;20202;-62
2021/04/17 05:45:30;;;;;;;12.27;10.53;;;7.80;96.40;;;;;;5156664;27;20661;-62
2021/04/17 05:47:56;;;;;;;14.30;11.73;;;8.00;96.20;;;;;;5156056;27;20709;-65
2021/04/17 05:50:23;;;;;;;19.23;13.77;;;8.10;95.90;;;;;;5156314;27;20205;-63
2021/04/17 05:52:49;;;;;;;11.20;9.87;;;8.20;95.70;;;;;;5155767;27;20226;-63
2021/04/17 05:55:15;;;;;;;11.97;9.70;;;8.30;95.50;;;;;;5155802;27;20210;-63
2021/04/17 05:57:42;;;;;;;13.17;9.73;;;8.30;95.30;;;;;;5155721;27;20226;-63
2021/04/17 06:00:10;;;;;;;10.33;9.23;;;8.40;95.20;;;;;;5155587;27;20205;-62
2021/04/17 06:02:37;;;;;;;12.43;8.60;;;8.50;95.40;;;;;;5155595;27;20202;-63
2021/04/17 06:05:04;;;;;;;11.90;10.27;;;8.50;95.50;;;;;;5155546;27;20229;-62
2021/04/17 06:07:30;;;;;;;9.50;8.50;;;8.60;95.60;;;;;;5155258;27;20202;-62
2021/04/17 06:09:56;;;;;;;9.87;8.03;;;8.70;95.40;;;;;;5155333;27;20198;-63
2021/04/17 06:12:22;;;;;;;11.53;10.33;;;8.70;95.30;;;;;;5155723;27;20574;-62
2021/04/17 06:14:49;;;;;;;12.57;10.30;;;8.80;95.20;;;;;;5155726;27;20468;-63
2021/04/17 06:17:16;;;;;;;9.37;8.17;;;8.90;95.00;;;;;;5155788;27;20645;-64
2021/04/17 06:19:42;;;;;;;11.30;8.93;;;8.90;95.00;;;;;;5155280;27;20203;-62
2021/04/17 06:22:08;;;;;;;10.43;8.90;;;9.00;94.70;;;;;;5155487;27;20734;-62
2021/04/17 06:24:34;;;;;;;13.43;10.27;;;9.20;94.70;;;;;;5154764;27;20670;-64
2021/04/17 06:27:01;;;;;;;11.43;8.97;;;9.30;94.50;;;;;;5155508;27;20217;-63
2021/04/17 06:29:27;;;;;;;9.93;8.27;;;9.50;94.00;;;;;;5154791;27;20218;-63
2021/04/17 06:31:53;;;;;;;10.63;8.93;;;9.70;93.80;;;;;;5155264;27;20632;-63
2021/04/17 06:34:20;;;;;;;10.27;9.20;;;9.90;93.00;;;;;;5155017;27;20206;-65
2021/04/17 06:36:46;;;;;;;10.43;9.23;;;9.80;93.00;;;;;;5156198;27;20206;-62
2021/04/17 06:39:12;;;;;;;12.67;9.80;;;9.60;93.20;;;;;;5155253;27;20603;-62
2021/04/17 06:41:42;;;;;;;11.13;9.73;;;9.60;93.30;;;;;;5156418;27;20194;-61
2021/04/17 06:44:09;;;;;;;11.00;9.87;;;9.70;93.20;;;;;;5156022;27;20209;-63
2021/04/17 06:46:38;;;;;;;12.80;10.80;;;9.90;93.00;;;;;;5154555;27;20206;-63
2021/04/17 06:49:07;;;;;;;10.60;9.37;;;10.20;92.00;;;;;;5154348;27;20235;-63
2021/04/17 06:51:37;;;;;;;10.77;9.53;;;10.50;91.10;;;;;;5154305;27;20222;-63
2021/04/17 06:54:05;;;;;;;10.63;9.50;;;10.60;91.20;;;;;;5154171;27;20202;-63
2021/04/17 06:56:32;;;;;;;10.73;9.47;;;10.80;91.10;;;;;;5153248;27;20704;-64
2021/04/17 06:58:59;;;;;;;24.00;17.70;;;11.10;90.80;;;;;;5154050;27;20705;-63
2021/04/17 07:01:25;;;;;;;18.30;14.03;;;11.40;90.20;;;;;;5154208;27;20202;-62
2021/04/17 07:03:52;;;;;;;11.43;9.50;;;11.90;89.10;;;;;;5154121;27;20198;-65
2021/04/17 07:06:18;;;;;;;10.87;9.17;;;12.30;87.10;;;;;;5154211;27;20271;-63
2021/04/17 07:08:45;;;;;;;13.53;9.17;;;12.70;85.60;;;;;;5153709;27;20717;-63
2021/04/17 07:11:11;;;;;;;9.80;8.80;;;13.10;84.40;;;;;;5153580;27;20217;-63
2021/04/17 07:13:38;;;;;;;13.67;9.30;;;13.60;82.70;;;;;;5153831;27;20202;-63
2021/04/17 07:16:09;;;;;;;10.90;8.80;;;14.10;79.80;;;;;;5153834;27;20206;-65
2021/04/17 07:18:36;;;;;;;9.57;8.60;;;14.60;79.00;;;;;;5154318;27;20222;-62
2021/04/17 07:21:29;;;;;;;10.70;8.60;;;15.30;77.00;;;;;;5154528;27;20210;-63
2021/04/17 07:23:57;;;;;;;8.97;8.07;;;16.30;72.70;;;;;;5155183;27;20216;-63
2021/04/17 07:26:25;;;;;;;9.30;7.87;;;16.90;69.40;;;;;;5155711;27;20202;-64
2021/04/17 07:29:16;;;;;;;9.47;8.37;;;17.40;67.30;;;;;;5154072;27;20234;-62
2021/04/17 07:31:49;;;;;;;8.80;7.90;;;18.00;65.10;;;;;;5129522;27;20225;-64
2021/04/17 07:34:17;;;;;;;8.85;7.95;;;18.70;62.70;;;;;;5158372;27;20205;-64
2021/04/17 07:36:52;;;;;;;8.80;7.90;;;19.40;61.50;;;;;;5156037;27;20238;-63
2021/04/17 07:39:30;;;;;;;10.35;9.27;;;20.10;58.80;;;;;;5158202;27;20316;-65
2021/04/17 07:42:01;;;;;;;8.18;7.38;;;20.70;57.60;;;;;;5154188;27;20204;-66
2021/04/17 07:44:36;;;;;;;8.30;7.45;;;20.80;55.90;;;;;;5153845;27;20229;-63
2021/04/17 07:47:04;;;;;;;7.63;6.68;;;20.70;54.80;;;;;;5154658;27;20198;-67
2021/04/17 07:49:30;;;;;;;8.55;7.75;;;20.40;54.40;;;;;;5154824;27;20471;-68
2021/04/17 07:51:59;;;;;;;9.55;7.30;;;19.90;55.10;;;;;;5155098;27;20248;-66
2021/04/17 07:54:25;;;;;;;15.10;11.75;;;19.60;55.30;;;;;;5153961;27;20217;-63
2021/04/17 07:56:53;;;;;;;8.60;7.80;;;19.40;55.10;;;;;;5153810;27;20199;-65
2021/04/17 07:59:21;;;;;;;9.00;7.72;;;19.40;54.90;;;;;;5153203;27;20226;-65
2021/04/17 08:01:49;;;;;;;7.90;7.10;;;19.20;54.90;;;;;;5153660;27;20210;-64
2021/04/17 08:04:25;;;;;;;8.68;6.75;;;19.20;54.80;;;;;;5153896;27;20206;-64
2021/04/17 08:06:52;;;;;;;8.00;6.60;;;19.30;54.80;;;;;;5153376;27;20206;-67
2021/04/17 08:09:21;;;;;;;8.00;6.55;;;19.20;53.70;;;;;;5153251;27;20218;-65
2021/04/17 08:11:50;;;;;;;7.70;6.75;;;19.20;53.90;;;;;;5153426;27;20320;-65
2021/04/17 08:14:19;;;;;;;10.53;7.23;;;18.90;54.00;;;;;;5152894;27;20213;-66
2021/04/17 08:16:46;;;;;;;8.63;7.20;;;18.50;55.00;;;;;;5153473;27;20235;-65
2021/04/17 08:19:12;;;;;;;10.53;7.53;;;17.80;56.10;;;;;;5153337;27;20312;-65
2021/04/17 08:21:39;;;;;;;9.50;7.30;;;16.90;57.40;;;;;;5153266;27;20198;-66
2021/04/17 08:24:07;;;;;;;9.60;7.77;;;16.10;59.10;;;;;;5152784;27;20240;-62
2021/04/17 08:26:34;;;;;;;7.73;6.93;;;15.70;59.90;;;;;;5152924;27;20251;-62
2021/04/17 08:29:00;;;;;;;7.97;7.00;;;15.60;60.40;;;;;;5152337;27;20706;-63
2021/04/17 08:31:31;;;;;;;7.80;7.00;;;15.60;59.90;;;;;;5152852;27;20260;-60
2021/04/17 08:34:17;;;;;;;7.83;7.03;;;15.60;60.10;;;;;;5152203;27;20573;-60
2021/04/17 08:36:46;;;;;;;9.70;7.40;;;15.70;60.00;;;;;;5137536;27;20198;-64
2021/04/17 08:39:41;;;;;;;8.53;7.33;;;15.70;60.70;;;;;;5148610;27;20246;-63
2021/04/17 08:42:10;;;;;;;8.80;6.90;;;15.80;59.60;;;;;;5092566;27;20198;-68
2021/04/17 08:44:39;;;;;;;7.93;7.13;;;16.00;60.50;;;;;;5152432;27;20554;-67
2021/04/17 08:47:08;;;;;;;8.33;7.47;;;15.90;61.00;;;;;;5152849;27;20213;-68
2021/04/17 08:49:36;;;;;;;9.17;7.50;;;15.80;61.00;;;;;;5152660;27;20700;-68
2021/04/17 08:52:21;;;;;;;8.73;6.93;;;15.70;61.30;;;;;;5153019;27;20262;-68
2021/04/17 08:55:07;;;;;;;7.43;6.20;;;15.90;60.70;;;;;;5153541;27;20223;-71
2021/04/17 08:57:34;;;;;;;8.10;5.80;;;16.10;59.80;;;;;;5152648;27;20233;-69
2021/04/17 09:00:01;;;;;;;7.80;6.57;;;16.50;58.70;;;;;;5152969;27;20203;-68
2021/04/17 09:02:29;;;;;;;6.73;5.97;;;16.70;57.90;;;;;;5153105;27;20249;-68
2021/04/17 09:05:01;;;;;;;8.17;5.97;;;16.80;57.70;;;;;;5153559;27;20247;-67
2021/04/17 09:07:28;;;;;;;6.57;5.70;;;16.60;57.90;;;;;;5154388;27;20579;-70
2021/04/17 09:09:55;;;;;;;7.60;5.60;;;16.50;57.60;;;;;;5154489;27;20206;-68
2021/04/17 09:12:28;;;;;;;7.87;5.80;;;16.20;57.10;;;;;;5154740;27;20615;-68
2021/04/17 09:14:59;;;;;;;7.63;5.70;;;16.00;58.00;;;;;;5153231;27;20301;-68
2021/04/17 09:17:44;;;;;;;7.37;5.87;;;15.90;57.20;;;;;;5155310;27;20210;-67
2021/04/17 09:20:13;;;;;;;8.07;6.43;;;15.60;58.20;;;;;;5157335;27;20210;-66
2021/04/17 09:22:48;;;;;;;8.90;5.97;;;15.40;58.90;;;;;;5157248;27;20681;-66
2021/04/17 09:25:35;;;;;;;9.43;5.30;;;15.50;59.10;;;;;;5157484;27;20211;-68
2021/04/17 09:28:01;;;;;;;7.00;5.40;;;15.70;59.10;;;;;;5159290;27;20248;-68
2021/04/17 09:30:28;;;;;;;9.20;5.40;;;16.20;58.30;;;;;;5157295;27;20262;-68
2021/04/17 09:32:56;;;;;;;6.13;4.93;;;16.30;57.20;;;;;;5156614;27;20716;-68
2021/04/17 09:35:24;;;;;;;7.33;5.53;;;16.60;57.10;;;;;;5156605;27;20198;-70
2021/04/17 09:38:00;;;;;;;9.87;7.77;;;16.80;56.40;;;;;;5156217;27;20218;-71
2021/04/17 09:40:30;;;;;;;7.83;5.10;;;16.90;56.50;;;;;;5158599;27;20205;-69
2021/04/17 09:42:56;;;;;;;8.20;5.37;;;16.90;55.70;;;;;;5157091;27;20194;-64
2021/04/17 09:45:33;;;;;;;6.07;5.30;;;16.90;56.20;;;;;;5155678;27;20573;-65
2021/04/17 09:48:02;;;;;;;6.40;5.60;;;16.80;55.90;;;;;;5155948;27;20230;-66
2021/04/17 09:50:31;;;;;;;6.43;5.43;;;16.60;56.40;;;;;;5156364;27;20202;-65
2021/04/17 09:53:15;;;;;;;8.13;5.33;;;16.30;57.20;;;;;;5155766;27;20229;-65
2021/04/17 09:55:48;;;;;;;6.57;4.90;;;16.00;56.80;;;;;;5155587;27;20227;-65
2021/04/17 09:58:20;;;;;;;6.10;4.70;;;15.90;57.10;;;;;;5155770;27;20217;-65
2021/04/17 10:00:47;;;;;;;5.90;5.30;;;15.80;57.10;;;;;;5155672;27;20202;-66
2021/04/17 10:03:24;;;;;;;11.10;4.90;;;15.60;57.30;;;;;;5155788;27;20684;-66
2021/04/17 10:05:50;;;;;;;7.73;5.03;;;15.40;57.60;;;;;;5155760;27;20628;-66
2021/04/17 10:08:29;;;;;;;8.37;5.43;;;15.50;57.90;;;;;;5155755;27;20226;-66
2021/04/17 10:10:56;;;;;;;6.10;4.90;;;15.50;57.70;;;;;;5155536;27;20726;-64
2021/04/17 10:13:39;;;;;;;6.50;4.87;;;15.40;57.80;;;;;;5156569;27;20706;-65
2021/04/17 10:16:06;;;;;;;5.87;5.03;;;15.60;57.70;;;;;;5155941;27;20202;-65
2021/04/17 10:18:34;;;;;;;7.10;5.13;;;15.90;57.00;;;;;;5155002;27;20225;-65
2021/04/17 10:21:01;;;;;;;7.53;5.80;;;16.30;56.50;;;;;;5155094;27;20287;-68
2021/04/17 10:23:27;;;;;;;6.27;5.20;;;16.80;55.70;;;;;;5155073;27;20270;-66
2021/04/17 10:25:53;;;;;;;7.03;5.03;;;17.20;55.10;;;;;;5156299;27;20530;-65
2021/04/17 10:28:22;;;;;;;6.13;5.10;;;17.20;54.50;;;;;;5155286;27;20269;-65
2021/04/17 10:30:51;;;;;;;8.90;5.30;;;16.90;54.70;;;;;;5155625;27;20238;-66
2021/04/17 10:33:18;;;;;;;7.53;4.87;;;16.80;55.00;;;;;;5155381;27;20222;-65
2021/04/17 10:35:47;;;;;;;8.30;6.17;;;16.60;55.00;;;;;;5156492;27;20263;-65
2021/04/17 10:38:27;;;;;;;6.10;4.90;;;16.20;55.40;;;;;;5155695;27;20218;-65
2021/04/17 10:40:54;;;;;;;5.20;4.70;;;16.10;55.60;;;;;;5155914;27;20574;-66
2021/04/17 10:43:21;;;;;;;6.53;4.97;;;16.00;55.30;;;;;;5155581;27;20203;-65
2021/04/17 10:45:48;;;;;;;6.03;5.13;;;16.00;55.70;;;;;;5155896;27;20238;-66
2021/04/17 10:48:18;;;;;;;9.43;5.40;;;16.00;55.40;;;;;;5155544;27;20597;-65
2021/04/17 10:50:54;;;;;;;8.50;5.37;;;15.90;55.80;;;;;;5155223;27;20202;-65
2021/04/17 10:53:24;;;;;;;6.83;6.03;;;16.00;56.10;;;;;;5154598;27;20238;-65
2021/04/17 10:55:52;;;;;;;10.03;5.10;;;16.00;55.90;;;;;;5154656;27;20202;-64
2021/04/17 10:58:25;;;;;;;11.40;5.70;;;16.20;55.70;;;;;;5154165;27;20218;-65
2021/04/17 11:00:55;;;;;;;8.00;5.10;;;16.40;55.20;;;;;;5154221;27;20198;-67
2021/04/17 11:03:21;;;;;;;7.30;5.33;;;16.60;55.00;;;;;;5153999;27;20289;-64
2021/04/17 11:05:48;;;;;;;8.27;5.07;;;16.70;55.10;;;;;;5154035;27;20206;-65
2021/04/17 11:08:21;;;;;;;10.90;6.00;;;16.80;55.20;;;;;;5153743;27;20274;-66
2021/04/17 11:10:47;;;;;;;7.23;4.80;;;17.00;54.60;;;;;;5153461;27;20222;-65
2021/04/17 11:13:32;;;;;;;7.00;4.70;;;17.30;54.00;;;;;;5153913;27;20672;-65
2021/04/17 11:15:59;;;;;;;4.67;4.20;;;17.30;53.40;;;;;;5154428;27;20209;-70
2021/04/17 11:18:31;;;;;;;5.43;4.37;;;17.60;52.90;;;;;;5153915;27;20233;-63
2021/04/17 11:20:59;;;;;;;5.07;4.23;;;17.60;52.00;;;;;;5153301;27;20574;-66
2021/04/17 11:23:34;;;;;;;6.53;4.63;;;17.50;51.90;;;;;;5153247;27;20209;-66
2021/04/17 11:26:02;;;;;;;7.00;4.40;;;17.60;52.10;;;;;;5153226;27;20225;-66
2021/04/17 11:28:28;;;;;;;6.13;3.93;;;17.70;51.30;;;;;;5153207;27;20769;-67
2021/04/17 11:30:55;;;;;;;5.77;3.90;;;17.90;51.10;;;;;;5153505;27;20202;-66
2021/04/17 11:33:22;;;;;;;6.53;3.67;;;18.20;50.40;;;;;;5153143;27;20602;-68
2021/04/17 11:35:48;;;;;;;5.47;4.20;;;18.40;50.90;;;;;;5153640;27;20199;-67
2021/04/17 11:38:14;;;;;;;6.43;4.20;;;18.30;51.40;;;;;;5153146;27;20226;-65
2021/04/17 11:40:42;;;;;;;5.10;4.00;;;18.10;51.20;;;;;;5152888;27;20222;-67
2021/04/17 11:43:08;;;;;;;5.03;4.30;;;18.00;51.30;;;;;;5153061;27;20202;-67
2021/04/17 11:45:34;;;;;;;6.90;4.27;;;18.10;50.50;;;;;;5153837;27;20229;-69
2021/04/17 11:48:00;;;;;;;5.30;3.63;;;18.40;50.40;;;;;;5154714;27;20226;-69
2021/04/17 11:50:27;;;;;;;8.47;5.83;;;18.50;49.50;;;;;;5154319;27;20209;-66
2021/04/17 11:52:53;;;;;;;5.03;3.80;;;18.40;49.70;;;;;;5153102;27;20239;-67
2021/04/17 11:55:19;;;;;;;5.63;4.00;;;18.10;50.00;;;;;;5153926;27;20608;-68
2021/04/17 11:57:46;;;;;;;6.17;4.07;;;17.80;50.40;;;;;;5154725;27;20458;-68
2021/04/17 12:00:13;;;;;;;5.27;3.57;;;17.60;50.40;;;;;;5153895;27;20216;-67
2021/04/17 12:02:39;;;;;;;6.90;2.80;;;17.60;50.30;;;;;;5153543;27;20203;-63
2021/04/17 12:05:07;;;;;;;3.70;2.50;;;17.80;47.60;;;;;;5153405;27;20209;-65
2021/04/17 12:07:33;;;;;;;5.07;2.83;;;18.00;46.70;;;;;;5153645;27;20198;-65
2021/04/17 12:09:59;;;;;;;3.60;2.57;;;17.70;46.10;;;;;;5153248;27;20205;-62
2021/04/17 12:12:26;;;;;;;3.53;2.40;;;17.20;46.70;;;;;;5153168;27;20222;-63
2021/04/17 12:14:53;;;;;;;4.93;2.43;;;16.80;47.60;;;;;;5153659;27;20293;-64
2021/04/17 12:17:19;;;;;;;3.43;2.23;;;16.70;47.40;;;;;;5154007;27;20213;-63
2021/04/17 12:19:45;;;;;;;3.60;2.77;;;16.80;48.10;;;;;;5153739;27;20202;-66
2021/04/17 12:22:11;;;;;;;4.43;2.40;;;16.80;47.50;;;;;;5153836;27;20627;-65
2021/04/17 12:24:38;;;;;;;4.23;2.27;;;16.60;47.60;;;;;;5153725;27;20314;-66
2021/04/17 12:27:05;;;;;;;2.83;2.20;;;16.50;47.70;;;;;;5153616;27;20206;-66
2021/04/17 12:29:31;;;;;;;4.07;2.13;;;16.50;48.20;;;;;;5153093;27;20233;-65
2021/04/17 12:31:59;;;;;;;7.87;2.40;;;16.40;46.80;;;;;;5152815;27;20225;-64
2021/04/17 12:34:25;;;;;;;3.37;2.23;;;16.20;46.60;;;;;;5153396;27;20225;-67
2021/04/17 12:36:51;;;;;;;3.30;2.10;;;16.30;46.80;;;;;;5153533;27;20210;-62
2021/04/17 12:39:17;;;;;;;3.83;2.20;;;16.50;46.40;;;;;;5153177;27;20225;-65
2021/04/17 12:41:44;;;;;;;5.17;2.50;;;16.80;46.20;;;;;;5152517;27;20209;-67
2021/04/17 12:44:10;;;;;;;4.43;2.53;;;16.70;46.20;;;;;;5153166;27;20259;-62
2021/04/17 12:46:37;;;;;;;4.17;2.50;;;16.10;47.40;;;;;;5153023;27;20213;-67
2021/04/17 12:49:05;;;;;;;5.10;2.30;;;15.80;48.00;;;;;;5152521;27;20622;-66
2021/04/17 12:51:31;;;;;;;7.93;2.33;;;15.90;48.50;;;;;;5152323;27;20203;-68
2021/04/17 12:53:58;;;;;;;9.47;6.30;;;16.10;47.80;;;;;;5155121;27;20198;-66